createdAt,value
2018-11-10T00:00:19.236Z,15.87
2018-11-10T00:02:48.410Z,17.10
2018-11-10T00:05:17.132Z,18.97
2018-11-10T00:07:45.516Z,17.47
2018-11-10T00:10:13.883Z,16.27
2018-11-10T00:12:42.196Z,18.37
2018-11-10T00:15:12.439Z,17.37
2018-11-10T00:17:41.567Z,16.60
2018-11-10T00:20:10.286Z,17.80
2018-11-10T00:22:39.755Z,15.90
2018-11-10T00:25:10.728Z,15.60
2018-11-10T00:27:39.076Z,15.57
2018-11-10T00:30:09.227Z,15.63
2018-11-10T00:32:37.548Z,14.07
2018-11-10T00:35:06.183Z,16.83
2018-11-10T00:37:35.015Z,16.73
2018-11-10T00:40:03.659Z,17.37
2018-11-10T00:42:31.987Z,16.50
2018-11-10T00:45:00.302Z,18.13
2018-11-10T00:47:28.638Z,17.23
2018-11-10T00:49:56.980Z,18.63
2018-11-10T00:52:25.324Z,16.83
2018-11-10T00:54:53.759Z,19.43
2018-11-10T00:57:22.072Z,18.53
2018-11-10T00:59:50.422Z,16.60
2018-11-10T01:02:18.751Z,17.37
2018-11-10T01:04:47.075Z,18.27
2018-11-10T01:07:15.379Z,17.87
2018-11-10T01:09:43.740Z,19.83
2018-11-10T01:12:12.539Z,18.17
2018-11-10T01:14:40.864Z,22.50
2018-11-10T01:17:09.179Z,19.73
2018-11-10T01:19:37.539Z,17.40
2018-11-10T01:22:06.303Z,18.33
2018-11-10T01:24:34.655Z,17.67
2018-11-10T01:27:02.965Z,19.43
2018-11-10T01:29:31.296Z,19.30
2018-11-10T01:31:59.615Z,17.97
2018-11-10T01:34:27.931Z,17.50
2018-11-10T01:36:56.251Z,15.07
2018-11-10T01:39:24.595Z,19.93
2018-11-10T01:41:52.903Z,17.17
2018-11-10T01:44:21.255Z,20.03
2018-11-10T01:46:49.547Z,19.67
2018-11-10T01:49:17.920Z,17.47
2018-11-10T01:51:46.239Z,20.47
2018-11-10T01:54:14.663Z,21.60
2018-11-10T01:56:42.991Z,21.83
2018-11-10T01:59:11.303Z,19.83
2018-11-10T02:01:39.619Z,21.77
2018-11-10T02:04:07.923Z,21.63
2018-11-10T02:06:36.331Z,20.27
2018-11-10T02:09:06.749Z,19.87
2018-11-10T02:11:35.351Z,19.30
2018-11-10T02:14:03.755Z,21.13
2018-11-10T02:16:32.071Z,21.37
2018-11-10T02:19:00.380Z,21.93
2018-11-10T02:21:28.711Z,21.13
2018-11-10T02:23:57.059Z,21.60
2018-11-10T02:26:25.420Z,22.20
2018-11-10T02:28:53.754Z,22.47
2018-11-10T02:31:22.067Z,21.27
2018-11-10T02:33:50.388Z,23.03
2018-11-10T02:36:18.724Z,23.40
2018-11-10T02:38:47.074Z,21.73
2018-11-10T02:41:15.355Z,24.20
2018-11-10T02:43:43.719Z,21.43
2018-11-10T02:46:12.083Z,20.93
2018-11-10T02:48:40.399Z,26.07
2018-11-10T02:51:08.711Z,24.97
2018-11-10T02:53:36.996Z,24.43
2018-11-10T02:56:05.523Z,21.23
2018-11-10T02:58:33.831Z,21.63
2018-11-10T03:01:02.156Z,27.20
2018-11-10T03:03:30.472Z,24.50
2018-11-10T03:05:58.801Z,21.23
2018-11-10T03:08:27.135Z,20.50
2018-11-10T03:10:55.537Z,23.03
2018-11-10T03:13:36.859Z,17.50
2018-11-10T03:16:15.773Z,21.50
2018-11-10T03:18:47.794Z,20.30
2018-11-10T03:21:16.103Z,17.03
2018-11-10T03:23:44.387Z,22.23
2018-11-10T03:26:12.726Z,19.63
2018-11-10T03:28:41.019Z,20.93
2018-11-10T03:31:09.351Z,20.43
2018-11-10T03:33:37.675Z,20.17
2018-11-10T03:36:06.052Z,23.23
2018-11-10T03:38:34.347Z,19.73
2018-11-10T03:41:02.728Z,19.00
2018-11-10T03:43:31.944Z,20.50
2018-11-10T03:46:00.251Z,21.87
2018-11-10T03:48:28.560Z,23.90
2018-11-10T03:50:56.884Z,23.00
2018-11-10T03:53:25.187Z,21.70
2018-11-10T03:55:53.499Z,22.60
2018-11-10T03:58:21.774Z,22.47
2018-11-10T04:00:50.624Z,24.00
2018-11-10T04:03:18.943Z,24.97
2018-11-10T04:05:47.276Z,28.73
2018-11-10T04:08:15.570Z,25.90
2018-11-10T04:10:43.899Z,24.97
2018-11-10T04:13:12.216Z,26.70
2018-11-10T04:15:40.667Z,26.93
2018-11-10T04:18:08.976Z,22.27
2018-11-10T04:20:37.292Z,21.87
2018-11-10T04:23:06.530Z,25.67
2018-11-10T04:25:34.877Z,23.50
2018-11-10T04:28:03.191Z,22.87
2018-11-10T04:30:31.507Z,21.10
2018-11-10T04:32:59.803Z,22.27
2018-11-10T04:35:28.099Z,21.37
2018-11-10T04:37:56.415Z,23.20
2018-11-10T04:40:24.711Z,21.27
2018-11-10T04:42:53.015Z,23.93
2018-11-10T04:45:21.307Z,24.83
2018-11-10T04:47:49.635Z,26.47
2018-11-10T04:50:17.919Z,28.80
2018-11-10T04:52:46.247Z,26.27
2018-11-10T04:55:14.551Z,27.60
2018-11-10T04:57:42.883Z,26.17
2018-11-10T05:00:14.191Z,25.87
2018-11-10T05:02:43.111Z,25.07
2018-11-10T05:05:11.408Z,25.17
2018-11-10T05:07:39.739Z,25.03
2018-11-10T05:10:09.031Z,20.47
2018-11-10T05:12:37.374Z,22.13
2018-11-10T05:15:06.943Z,22.53
2018-11-10T05:17:35.259Z,20.00
2018-11-10T05:20:03.651Z,20.17
2018-11-10T05:22:31.992Z,17.47
2018-11-10T05:25:00.295Z,13.03
2018-11-10T05:27:28.715Z,12.37
2018-11-10T05:29:57.239Z,12.93
2018-11-10T05:32:25.558Z,10.47
2018-11-10T05:34:53.943Z,12.27
2018-11-10T05:37:22.262Z,11.97
2018-11-10T05:39:50.544Z,12.70
2018-11-10T05:42:19.040Z,15.37
2018-11-10T05:44:47.349Z,17.37
2018-11-10T05:47:15.783Z,15.87
2018-11-10T05:49:44.071Z,13.47
2018-11-10T05:52:12.387Z,17.00
2018-11-10T05:54:40.695Z,16.13
2018-11-10T05:57:09.039Z,17.07
2018-11-10T05:59:37.343Z,19.40
2018-11-10T06:02:05.963Z,16.83
2018-11-10T06:04:34.263Z,16.20
2018-11-10T06:07:02.631Z,16.37
2018-11-10T06:09:31.012Z,16.10
2018-11-10T06:11:59.666Z,18.50
2018-11-10T06:14:27.959Z,18.13
2018-11-10T06:16:56.271Z,16.80
2018-11-10T06:19:24.647Z,14.63
2018-11-10T06:21:52.947Z,14.17
2018-11-10T06:24:21.256Z,15.83
2018-11-10T06:26:49.579Z,14.37
2018-11-10T06:29:17.875Z,14.57
2018-11-10T06:31:46.199Z,14.17
2018-11-10T06:34:14.502Z,14.43
2018-11-10T06:36:42.866Z,14.60
2018-11-10T06:39:12.148Z,13.50
2018-11-10T06:41:40.735Z,16.93
2018-11-10T06:44:09.047Z,14.77
2018-11-10T06:46:37.885Z,17.77
2018-11-10T06:49:06.795Z,17.20
2018-11-10T06:51:35.095Z,16.17
2018-11-10T06:54:03.428Z,16.87
2018-11-10T06:56:31.759Z,17.43
2018-11-10T06:59:00.084Z,15.13
2018-11-10T07:01:28.415Z,13.87
2018-11-10T07:03:56.777Z,16.20
2018-11-10T07:06:25.062Z,12.67
2018-11-10T07:08:53.366Z,15.40
2018-11-10T07:11:21.659Z,13.13
2018-11-10T07:13:50.102Z,14.23
2018-11-10T07:16:18.387Z,14.70
2018-11-10T07:18:46.695Z,14.87
2018-11-10T07:21:14.987Z,14.33
2018-11-10T07:23:43.315Z,15.30
2018-11-10T07:26:11.604Z,14.40
2018-11-10T07:28:39.923Z,16.33
2018-11-10T07:31:08.224Z,15.90
2018-11-10T07:33:38.858Z,15.33
2018-11-10T07:36:07.187Z,17.87
2018-11-10T07:38:35.499Z,15.93
2018-11-10T07:41:03.823Z,18.73
2018-11-10T07:43:32.168Z,17.43
2018-11-10T07:46:00.476Z,18.33
2018-11-10T07:48:28.783Z,17.47
2018-11-10T07:50:57.070Z,18.03
2018-11-10T07:53:25.403Z,18.67
2018-11-10T07:55:53.896Z,22.57
2018-11-10T07:58:22.160Z,18.03
2018-11-10T08:00:50.446Z,18.23
2018-11-10T08:03:18.793Z,21.80
2018-11-10T08:05:47.102Z,22.17
2018-11-10T08:08:15.419Z,20.83
2018-11-10T08:10:43.727Z,18.33
2018-11-10T08:13:12.035Z,18.10
2018-11-10T08:15:40.371Z,19.07
2018-11-10T08:18:08.707Z,21.53
2018-11-10T08:20:37.031Z,19.80
2018-11-10T08:23:05.416Z,20.47
2018-11-10T08:25:33.748Z,17.23
2018-11-10T08:28:02.071Z,19.47
2018-11-10T08:30:30.411Z,18.50
2018-11-10T08:32:59.139Z,17.63
2018-11-10T08:35:27.491Z,18.07
2018-11-10T08:37:55.803Z,17.20
2018-11-10T08:40:24.116Z,19.23
2018-11-10T08:42:52.419Z,14.17
2018-11-10T08:45:20.750Z,16.10
2018-11-10T08:47:49.046Z,15.27
2018-11-10T08:50:17.903Z,14.67
2018-11-10T08:52:46.222Z,13.93
2018-11-10T08:55:14.776Z,14.47
2018-11-10T08:57:43.821Z,16.07
2018-11-10T09:00:12.464Z,14.07
2018-11-10T09:02:40.824Z,67.20
2018-11-10T09:05:10.431Z,28.03
2018-11-10T09:07:38.726Z,14.83
2018-11-10T09:10:08.516Z,13.77
2018-11-10T09:12:36.877Z,14.40
2018-11-10T09:15:06.815Z,17.67
2018-11-10T09:17:35.088Z,21.37
2018-11-10T09:20:03.438Z,19.00
2018-11-10T09:22:32.273Z,20.57
2018-11-10T09:25:00.591Z,18.43
2018-11-10T09:27:28.904Z,16.60
2018-11-10T09:29:57.243Z,14.43
2018-11-10T09:32:25.586Z,17.77
2018-11-10T09:34:53.919Z,15.37
2018-11-10T09:37:22.229Z,16.20
2018-11-10T09:39:50.539Z,15.90
2018-11-10T09:42:18.929Z,14.87
2018-11-10T09:44:47.583Z,13.87
2018-11-10T09:47:16.067Z,14.47
2018-11-10T09:49:44.392Z,14.03
2018-11-10T09:52:12.720Z,15.27
2018-11-10T09:54:41.023Z,13.43
2018-11-10T09:57:09.351Z,10.50
2018-11-10T09:59:37.658Z,12.20
2018-11-10T10:02:06.610Z,12.17
2018-11-10T10:04:34.587Z,12.33
2018-11-10T10:07:03.830Z,12.20
2018-11-10T10:09:32.131Z,10.27
2018-11-10T10:12:00.444Z,12.87
2018-11-10T10:14:28.755Z,10.27
2018-11-10T10:16:57.069Z,8.80
2018-11-10T10:19:25.390Z,10.10
2018-11-10T10:21:53.782Z,7.73
2018-11-10T10:24:22.043Z,9.13
2018-11-10T10:26:50.355Z,8.57
2018-11-10T10:29:18.685Z,7.30
2018-11-10T10:31:47.007Z,7.70
2018-11-10T10:34:15.366Z,6.37
2018-11-10T10:36:43.647Z,7.97
2018-11-10T10:39:11.939Z,6.63
2018-11-10T10:41:40.359Z,6.97
2018-11-10T10:44:09.688Z,6.87
2018-11-10T10:46:38.040Z,4.87
2018-11-10T10:49:06.612Z,7.13
2018-11-10T10:51:35.339Z,7.53
2018-11-10T10:54:03.659Z,6.30
2018-11-10T10:56:32.054Z,5.70
2018-11-10T10:59:00.315Z,5.33
2018-11-10T11:01:33.938Z,5.40
2018-11-10T11:04:07.445Z,5.33
2018-11-10T11:06:35.752Z,6.07
2018-11-10T11:09:04.603Z,6.17
2018-11-10T11:11:32.892Z,5.80
2018-11-10T11:14:01.221Z,6.77
2018-11-10T11:16:29.947Z,6.07
2018-11-10T11:18:58.583Z,4.80
2018-11-10T11:21:26.880Z,6.20
2018-11-10T11:23:55.196Z,5.37
2018-11-10T11:26:24.129Z,5.53
2018-11-10T11:28:52.440Z,6.27
2018-11-10T11:31:20.744Z,6.67
2018-11-10T11:33:49.103Z,5.27
2018-11-10T11:36:17.400Z,6.60
2018-11-10T11:38:45.727Z,6.43
2018-11-10T11:41:14.969Z,5.97
2018-11-10T11:43:43.149Z,5.00
2018-11-10T11:46:11.560Z,4.97
2018-11-10T11:48:39.992Z,5.47
2018-11-10T11:51:08.313Z,6.33
2018-11-10T11:53:36.635Z,4.50
2018-11-10T11:56:05.267Z,4.80
2018-11-10T11:58:33.588Z,5.83
2018-11-10T12:01:01.896Z,4.10
2018-11-10T12:03:30.216Z,3.43
2018-11-10T12:05:58.531Z,2.90
2018-11-10T12:08:26.847Z,3.53
2018-11-10T12:10:55.149Z,3.97
2018-11-10T12:13:23.464Z,3.27
2018-11-10T12:15:51.819Z,3.50
2018-11-10T12:18:20.162Z,4.90
2018-11-10T12:20:48.517Z,4.33
2018-11-10T12:23:16.780Z,4.53
2018-11-10T12:25:45.067Z,4.23
2018-11-10T12:28:13.631Z,3.50
2018-11-10T12:30:41.963Z,2.83
2018-11-10T12:33:10.287Z,3.47
2018-11-10T12:35:38.579Z,4.07
2018-11-10T12:38:07.579Z,2.80
2018-11-10T12:40:35.903Z,2.90
2018-11-10T12:43:04.236Z,2.87
2018-11-10T12:45:32.588Z,3.03
2018-11-10T12:48:01.345Z,2.43
2018-11-10T12:50:29.648Z,2.50
2018-11-10T12:52:57.962Z,2.13
2018-11-10T12:55:26.297Z,1.77
2018-11-10T12:57:54.639Z,3.47
2018-11-10T13:00:22.944Z,3.20
2018-11-10T13:02:51.275Z,3.30
2018-11-10T13:05:19.600Z,3.27
2018-11-10T13:07:48.287Z,2.67
2018-11-10T13:10:16.617Z,2.30
2018-11-10T13:12:45.312Z,2.50
2018-11-10T13:15:13.626Z,2.60
2018-11-10T13:17:41.998Z,3.40
2018-11-10T13:20:12.548Z,3.17
2018-11-10T13:22:40.835Z,3.07
2018-11-10T13:25:10.235Z,4.90
2018-11-10T13:27:38.663Z,4.17
2018-11-10T13:30:08.668Z,3.20
2018-11-10T13:32:37.000Z,4.57
2018-11-10T13:35:06.266Z,4.03
2018-11-10T13:37:34.658Z,3.80
2018-11-10T13:40:03.015Z,3.33
2018-11-10T13:42:31.382Z,2.83
2018-11-10T13:44:59.651Z,4.10
2018-11-10T13:47:27.950Z,3.10
2018-11-10T13:49:56.275Z,2.83
2018-11-10T13:52:24.905Z,4.07
2018-11-10T13:54:53.226Z,3.33
2018-11-10T13:57:21.547Z,2.37
2018-11-10T13:59:50.259Z,2.57
2018-11-10T14:02:18.566Z,2.60
2018-11-10T14:04:46.856Z,3.00
2018-11-10T14:07:15.165Z,1.90
2018-11-10T14:09:43.476Z,3.33
2018-11-10T14:12:11.783Z,4.77
2018-11-10T14:14:40.067Z,2.67
2018-11-10T14:17:08.705Z,2.00
2018-11-10T14:19:37.116Z,3.10
2018-11-10T14:22:05.604Z,2.00
2018-11-10T14:24:33.896Z,2.00
2018-11-10T14:27:02.232Z,1.77
2018-11-10T14:29:30.511Z,2.23
2018-11-10T14:31:58.832Z,3.00
2018-11-10T14:34:27.325Z,2.30
2018-11-10T14:36:55.629Z,3.97
2018-11-10T14:39:23.939Z,2.70
2018-11-10T14:41:52.571Z,3.67
2018-11-10T14:44:20.884Z,6.60
2018-11-10T14:46:49.193Z,9.27
2018-11-10T14:49:17.515Z,2.90
2018-11-10T14:51:45.832Z,2.57
2018-11-10T14:54:14.139Z,2.40
2018-11-10T14:56:42.471Z,2.20
2018-11-10T14:59:10.763Z,2.03
2018-11-10T15:01:39.095Z,2.30
2018-11-10T15:04:07.423Z,2.60
2018-11-10T15:06:35.748Z,3.10
2018-11-10T15:09:04.919Z,1.73
2018-11-10T15:11:33.680Z,2.23
2018-11-10T15:14:01.925Z,2.67
2018-11-10T15:16:30.243Z,1.90
2018-11-10T15:18:58.547Z,1.67
2018-11-10T15:21:27.155Z,1.97
2018-11-10T15:23:55.469Z,1.60
2018-11-10T15:26:23.818Z,3.50
2018-11-10T15:28:52.130Z,2.90
2018-11-10T15:31:20.444Z,1.63
2018-11-10T15:33:48.759Z,1.50
2018-11-10T15:36:17.063Z,2.93
2018-11-10T15:38:45.551Z,1.57
2018-11-10T15:41:13.870Z,2.00
2018-11-10T15:43:42.176Z,1.70
2018-11-10T15:46:10.750Z,1.80
2018-11-10T15:48:40.328Z,1.57
2018-11-10T15:51:08.665Z,1.70
2018-11-10T15:53:36.963Z,1.80
2018-11-10T15:56:05.519Z,1.40
2018-11-10T15:58:33.831Z,1.60
2018-11-10T16:01:02.147Z,2.47
2018-11-10T16:03:30.828Z,1.83
2018-11-10T16:05:59.130Z,2.17
2018-11-10T16:08:27.462Z,2.03
2018-11-10T16:10:55.764Z,1.73
2018-11-10T16:13:24.095Z,3.00
2018-11-10T16:15:52.401Z,1.20
2018-11-10T16:18:20.727Z,2.57
2018-11-10T16:20:49.071Z,1.87
2018-11-10T16:23:17.343Z,3.37
2018-11-10T16:25:45.654Z,3.17
2018-11-10T16:28:13.983Z,1.97
2018-11-10T16:30:42.307Z,1.73
2018-11-10T16:33:10.659Z,1.40
2018-11-10T16:35:38.960Z,1.13
2018-11-10T16:38:07.291Z,2.03
2018-11-10T16:40:35.595Z,1.73
2018-11-10T16:43:03.924Z,1.63
2018-11-10T16:45:32.239Z,2.40
2018-11-10T16:48:00.551Z,9.50
2018-11-10T16:50:28.843Z,6.03
2018-11-10T16:52:57.168Z,2.73
2018-11-10T16:55:25.482Z,1.87
2018-11-10T16:57:53.794Z,2.13
2018-11-10T17:00:22.221Z,3.60
2018-11-10T17:02:50.544Z,1.63
2018-11-10T17:05:18.842Z,2.13
2018-11-10T17:07:47.184Z,2.17
2018-11-10T17:10:17.282Z,2.33
2018-11-10T17:12:45.616Z,2.00
2018-11-10T17:15:13.934Z,2.07
2018-11-10T17:17:42.261Z,2.67
2018-11-10T17:20:13.023Z,2.80
2018-11-10T17:22:41.440Z,3.60
2018-11-10T17:25:10.395Z,2.03
2018-11-10T17:27:39.100Z,2.30
2018-11-10T17:30:10.131Z,2.50
2018-11-10T17:32:38.459Z,6.37
2018-11-10T17:35:07.274Z,3.60
2018-11-10T17:37:35.691Z,5.87
2018-11-10T17:40:04.096Z,4.67
2018-11-10T17:42:32.828Z,3.53
2018-11-10T17:45:01.352Z,3.93
2018-11-10T17:47:29.667Z,3.27
2018-11-10T17:49:57.984Z,3.10
2018-11-10T17:52:26.308Z,2.40
2018-11-10T17:54:54.679Z,2.73
2018-11-10T17:57:22.951Z,2.10
2018-11-10T17:59:51.612Z,3.27
2018-11-10T18:02:20.005Z,5.10
2018-11-10T18:04:48.256Z,2.70
2018-11-10T18:07:16.575Z,2.33
2018-11-10T18:09:44.878Z,2.67
2018-11-10T18:12:13.191Z,2.37
2018-11-10T18:14:41.495Z,2.73
2018-11-10T18:17:09.808Z,3.30
2018-11-10T18:19:38.248Z,1.83
2018-11-10T18:22:06.534Z,2.10
2018-11-10T18:24:35.102Z,2.37
2018-11-10T18:27:03.532Z,2.70
2018-11-10T18:29:31.873Z,2.43
2018-11-10T18:32:00.155Z,2.67
2018-11-10T18:34:28.739Z,3.60
2018-11-10T18:36:58.012Z,3.20
2018-11-10T18:39:26.414Z,4.53
2018-11-10T18:41:54.663Z,3.33
2018-11-10T18:44:26.106Z,2.50
2018-11-10T18:46:55.680Z,4.17
2018-11-10T18:49:25.499Z,2.73
2018-11-10T18:51:55.027Z,3.40
2018-11-10T18:54:25.078Z,2.33
2018-11-10T18:56:53.613Z,2.07
2018-11-10T18:59:22.971Z,2.00
2018-11-10T19:01:52.983Z,2.43
2018-11-10T19:04:22.620Z,2.07
2018-11-10T19:06:52.283Z,1.97
2018-11-10T19:09:23.369Z,2.07
2018-11-10T19:11:52.657Z,2.00
2018-11-10T19:14:22.323Z,2.50
2018-11-10T19:16:53.916Z,2.00
2018-11-10T19:19:23.474Z,2.40
2018-11-10T19:21:52.973Z,2.10
2018-11-10T19:24:22.567Z,2.13
2018-11-10T19:26:52.274Z,2.23
2018-11-10T19:29:21.924Z,2.40
2018-11-10T19:31:51.916Z,3.03
2018-11-10T19:34:22.923Z,2.37
2018-11-10T19:36:53.349Z,3.37
2018-11-10T19:39:25.674Z,3.67
2018-11-10T19:41:54.971Z,3.77
2018-11-10T19:44:24.390Z,3.00
2018-11-10T19:46:53.827Z,3.40
2018-11-10T19:49:24.270Z,3.57
2018-11-10T19:51:52.918Z,4.10
2018-11-10T19:54:21.212Z,4.53
2018-11-10T19:56:49.539Z,4.90
2018-11-10T19:59:18.071Z,3.77
2018-11-10T20:01:46.370Z,3.83
2018-11-10T20:04:19.046Z,3.07
2018-11-10T20:06:50.288Z,3.53
2018-11-10T20:09:19.703Z,3.90
2018-11-10T20:11:54.515Z,3.50
2018-11-10T20:14:27.606Z,2.93
2018-11-10T20:16:58.859Z,3.67
2018-11-10T20:19:28.488Z,3.37
2018-11-10T20:21:57.971Z,4.83
2018-11-10T20:24:28.250Z,4.23
2018-11-10T20:26:57.645Z,5.00
2018-11-10T20:29:26.527Z,3.93
2018-11-10T20:31:57.406Z,4.63
2018-11-10T20:34:27.142Z,3.20
2018-11-10T20:36:56.721Z,3.50
2018-11-10T20:39:26.133Z,4.33
2018-11-10T20:41:55.590Z,3.00
2018-11-10T20:44:24.398Z,3.30
2018-11-10T20:46:57.461Z,2.97
2018-11-10T20:49:29.238Z,3.57
2018-11-10T20:51:57.599Z,4.00
2018-11-10T20:54:26.803Z,3.67
2018-11-10T20:56:55.895Z,2.60
2018-11-10T20:59:26.116Z,2.23
2018-11-10T21:01:55.641Z,2.77
2018-11-10T21:04:23.980Z,2.93
2018-11-10T21:06:52.312Z,4.47
2018-11-10T21:09:20.625Z,2.20
2018-11-10T21:11:48.968Z,2.10
2018-11-10T21:14:17.977Z,1.70
2018-11-10T21:16:46.313Z,1.77
2018-11-10T21:19:14.639Z,4.07
2018-11-10T21:21:42.944Z,1.93
2018-11-10T21:24:11.265Z,1.90
2018-11-10T21:26:39.854Z,2.13
2018-11-10T21:29:09.004Z,1.87
2018-11-10T21:31:38.726Z,1.80
2018-11-10T21:34:07.549Z,2.53
2018-11-10T21:36:36.503Z,1.87
2018-11-10T21:39:07.535Z,3.50
2018-11-10T21:41:35.861Z,1.97
2018-11-10T21:44:04.191Z,2.53
2018-11-10T21:46:33.566Z,2.37
2018-11-10T21:49:02.033Z,1.80
2018-11-10T21:51:30.363Z,2.13
2018-11-10T21:53:58.907Z,2.10
2018-11-10T21:56:27.219Z,2.33
2018-11-10T21:58:58.435Z,1.80
2018-11-10T22:01:26.747Z,2.40
2018-11-10T22:03:55.075Z,1.70
2018-11-10T22:06:23.428Z,2.13
2018-11-10T22:08:51.777Z,1.93
2018-11-10T22:11:20.475Z,2.17
2018-11-10T22:13:48.776Z,2.23
2018-11-10T22:16:18.359Z,1.87
2018-11-10T22:18:46.687Z,2.60
2018-11-10T22:21:15.228Z,45.37
2018-11-10T22:23:43.540Z,2.57
2018-11-10T22:26:11.843Z,1.60
2018-11-10T22:28:41.296Z,1.77
2018-11-10T22:31:10.475Z,1.10
2018-11-10T22:33:38.775Z,1.40
2018-11-10T22:36:07.094Z,1.50
2018-11-10T22:38:35.404Z,1.40
2018-11-10T22:41:03.715Z,2.77
2018-11-10T22:43:34.201Z,1.30
2018-11-10T22:46:02.501Z,1.40
2018-11-10T22:48:30.818Z,1.10
2018-11-10T22:50:59.915Z,1.20
2018-11-10T22:53:28.276Z,1.30
2018-11-10T22:55:56.595Z,1.37
2018-11-10T22:58:28.667Z,1.40
2018-11-10T23:01:02.030Z,1.37
2018-11-10T23:03:31.467Z,1.50
2018-11-10T23:05:59.760Z,1.07
2018-11-10T23:08:28.052Z,1.13
2018-11-10T23:10:56.470Z,1.53
2018-11-10T23:13:24.790Z,2.10
2018-11-10T23:15:53.106Z,1.50
2018-11-10T23:18:21.431Z,1.20
2018-11-10T23:20:49.699Z,1.40
2018-11-10T23:23:18.051Z,1.30
2018-11-10T23:25:46.335Z,1.77
2018-11-10T23:28:14.638Z,1.10
2018-11-10T23:30:42.940Z,1.13
2018-11-10T23:33:11.238Z,1.37
2018-11-10T23:35:39.575Z,2.20
2018-11-10T23:38:07.889Z,1.57
2018-11-10T23:40:36.195Z,1.07
2018-11-10T23:43:04.583Z,1.73
2018-11-10T23:45:32.861Z,1.10
2018-11-10T23:48:01.163Z,1.60
2018-11-10T23:50:29.476Z,1.30
2018-11-10T23:52:57.788Z,1.20
2018-11-10T23:55:26.068Z,1.37
2018-11-10T23:57:54.358Z,1.40
